createdAt,value
2018-04-26T00:00:40.125Z,20.5
2018-04-26T00:01:40.766Z,20.6
2018-04-26T00:02:41.407Z,20.5
2018-04-26T00:03:42.056Z,20.6
2018-04-26T00:04:42.696Z,20.6
2018-04-26T00:05:43.335Z,20.6
2018-04-26T00:06:43.977Z,20.6
2018-04-26T00:07:44.617Z,20.5
2018-04-26T00:08:45.257Z,20.6
2018-04-26T00:09:45.997Z,20.6
2018-04-26T00:10:46.640Z,20.6
2018-04-26T00:11:47.280Z,20.5
2018-04-26T00:12:47.921Z,20.6
2018-04-26T00:13:48.561Z,20.5
2018-04-26T00:14:49.201Z,20.5
2018-04-26T00:15:49.844Z,20.6
2018-04-26T00:16:50.487Z,20.6
2018-04-26T00:17:51.126Z,20.6
2018-04-26T00:18:51.766Z,20.6
2018-04-26T00:19:52.409Z,20.6
2018-04-26T00:20:53.049Z,20.6
2018-04-26T00:21:53.692Z,20.6
2018-04-26T00:22:54.332Z,20.6
2018-04-26T00:23:54.973Z,20.6
2018-04-26T00:24:56.170Z,20.6
2018-04-26T00:25:56.812Z,20.6
2018-04-26T00:26:57.453Z,20.6
2018-04-26T00:27:58.095Z,20.5
2018-04-26T00:28:58.735Z,20.6
2018-04-26T00:29:59.375Z,20.6
2018-04-26T00:31:00.020Z,20.6
2018-04-26T00:32:00.664Z,20.6
2018-04-26T00:33:01.304Z,20.5
2018-04-26T00:34:01.944Z,20.6
2018-04-26T00:35:02.613Z,20.5
2018-04-26T00:36:03.230Z,20.6
2018-04-26T00:37:03.870Z,20.5
2018-04-26T00:38:04.514Z,20.6
2018-04-26T00:39:05.150Z,20.6
2018-04-26T00:40:06.044Z,20.6
2018-04-26T00:41:06.681Z,20.5
2018-04-26T00:42:07.323Z,20.5
2018-04-26T00:43:07.963Z,20.5
2018-04-26T00:44:08.604Z,20.5
2018-04-26T00:45:09.245Z,20.5
2018-04-26T00:46:09.886Z,20.5
2018-04-26T00:47:10.533Z,20.5
2018-04-26T00:48:11.177Z,20.6
2018-04-26T00:49:11.817Z,20.6
2018-04-26T00:50:12.459Z,20.5
2018-04-26T00:51:13.097Z,20.6
2018-04-26T00:52:13.785Z,20.6
2018-04-26T00:53:14.430Z,20.5
2018-04-26T00:54:15.065Z,20.5
2018-04-26T00:55:15.804Z,20.6
2018-04-26T00:56:16.444Z,20.6
2018-04-26T00:57:17.088Z,20.5
2018-04-26T00:58:17.727Z,20.6
2018-04-26T00:59:18.368Z,20.5
2018-04-26T01:00:19.013Z,20.6
2018-04-26T01:01:19.656Z,20.5
2018-04-26T01:02:20.297Z,20.6
2018-04-26T01:03:20.937Z,20.6
2018-04-26T01:04:21.577Z,20.5
2018-04-26T01:05:22.220Z,20.5
2018-04-26T01:06:22.859Z,20.6
2018-04-26T01:07:23.502Z,20.6
2018-04-26T01:08:24.142Z,20.5
2018-04-26T01:09:24.785Z,20.6
2018-04-26T01:10:25.524Z,20.5
2018-04-26T01:11:26.166Z,20.5
2018-04-26T01:12:26.808Z,20.5
2018-04-26T01:13:27.449Z,20.6
2018-04-26T01:14:28.090Z,20.6
2018-04-26T01:15:28.731Z,20.5
2018-04-26T01:16:29.371Z,20.5
2018-04-26T01:17:30.012Z,20.5
2018-04-26T01:18:30.654Z,20.6
2018-04-26T01:19:31.294Z,20.5
2018-04-26T01:20:31.936Z,20.5
2018-04-26T01:21:32.577Z,20.5
2018-04-26T01:22:33.221Z,20.5
2018-04-26T01:23:33.860Z,20.6
2018-04-26T01:24:34.752Z,20.6
2018-04-26T01:25:35.393Z,20.5
2018-04-26T01:26:36.041Z,20.5
2018-04-26T01:27:36.686Z,20.5
2018-04-26T01:28:37.324Z,20.6
2018-04-26T01:29:37.965Z,20.6
2018-04-26T01:30:38.607Z,20.6
2018-04-26T01:31:39.247Z,20.5
2018-04-26T01:32:39.889Z,20.5
2018-04-26T01:33:40.579Z,20.5
2018-04-26T01:34:41.175Z,20.5
2018-04-26T01:35:41.814Z,20.5
2018-04-26T01:36:42.456Z,20.5
2018-04-26T01:37:43.095Z,20.5
2018-04-26T01:38:43.737Z,20.5
2018-04-26T01:39:44.526Z,20.5
2018-04-26T01:40:45.166Z,20.5
2018-04-26T01:41:45.808Z,20.5
2018-04-26T01:42:46.447Z,20.5
2018-04-26T01:43:47.088Z,20.5
2018-04-26T01:44:47.730Z,20.5
2018-04-26T01:45:48.370Z,20.5
2018-04-26T01:46:49.017Z,20.5
2018-04-26T01:47:49.657Z,20.5
2018-04-26T01:48:50.296Z,20.5
2018-04-26T01:49:50.937Z,20.5
2018-04-26T01:50:51.578Z,20.5
2018-04-26T01:51:52.225Z,20.5
2018-04-26T01:52:52.860Z,20.5
2018-04-26T01:53:53.505Z,20.5
2018-04-26T01:54:54.345Z,20.5
2018-04-26T01:55:54.986Z,20.5
2018-04-26T01:56:55.628Z,20.4
2018-04-26T01:57:56.269Z,20.5
2018-04-26T01:58:56.911Z,20.5
2018-04-26T01:59:57.552Z,20.5
2018-04-26T02:00:58.200Z,20.5
2018-04-26T02:01:58.842Z,20.5
2018-04-26T02:02:59.482Z,20.5
2018-04-26T02:04:00.123Z,20.5
2018-04-26T02:05:00.762Z,20.5
2018-04-26T02:06:01.406Z,20.4
2018-04-26T02:07:02.046Z,20.5
2018-04-26T02:08:02.686Z,20.5
2018-04-26T02:09:03.326Z,20.4
2018-04-26T02:10:04.218Z,20.5
2018-04-26T02:11:04.870Z,20.5
2018-04-26T02:12:05.593Z,20.4
2018-04-26T02:13:06.234Z,20.4
2018-04-26T02:14:06.874Z,20.4
2018-04-26T02:15:07.513Z,20.5
2018-04-26T02:16:08.154Z,20.5
2018-04-26T02:17:08.793Z,20.4
2018-04-26T02:18:09.434Z,20.5
2018-04-26T02:19:10.076Z,20.5
2018-04-26T02:20:10.719Z,20.4
2018-04-26T02:21:11.360Z,20.4
2018-04-26T02:22:12.000Z,20.4
2018-04-26T02:23:12.641Z,20.5
2018-04-26T02:24:13.884Z,20.5
2018-04-26T02:25:14.523Z,20.4
2018-04-26T02:26:15.165Z,20.5
2018-04-26T02:27:15.805Z,20.4
2018-04-26T02:28:16.450Z,20.4
2018-04-26T02:29:17.084Z,20.4
2018-04-26T02:30:17.737Z,20.4
2018-04-26T02:31:18.366Z,20.4
2018-04-26T02:32:19.021Z,20.5
2018-04-26T02:33:19.672Z,20.4
2018-04-26T02:34:20.311Z,20.4
2018-04-26T02:35:20.951Z,20.4
2018-04-26T02:36:21.592Z,20.4
2018-04-26T02:37:22.240Z,20.4
2018-04-26T02:38:22.874Z,20.4
2018-04-26T02:39:23.770Z,20.5
2018-04-26T02:40:24.407Z,20.4
2018-04-26T02:41:25.048Z,20.4
2018-04-26T02:42:25.689Z,20.3
2018-04-26T02:43:26.330Z,20.4
2018-04-26T02:44:26.970Z,20.4
2018-04-26T02:45:27.611Z,20.4
2018-04-26T02:46:28.252Z,20.4
2018-04-26T02:47:28.895Z,20.4
2018-04-26T02:48:29.531Z,20.4
2018-04-26T02:49:30.172Z,20.4
2018-04-26T02:50:30.817Z,20.5
2018-04-26T02:51:31.455Z,20.5
2018-04-26T02:52:32.095Z,20.5
2018-04-26T02:53:32.744Z,20.5
2018-04-26T02:54:33.485Z,20.4
2018-04-26T02:55:34.125Z,20.5
2018-04-26T02:56:34.766Z,20.4
2018-04-26T02:57:35.406Z,20.4
2018-04-26T02:58:36.056Z,20.4
2018-04-26T02:59:36.695Z,20.5
2018-04-26T03:00:37.342Z,20.5
2018-04-26T03:01:37.985Z,20.4
2018-04-26T03:02:38.621Z,20.3
2018-04-26T03:03:39.261Z,20.4
2018-04-26T03:04:39.902Z,20.3
2018-04-26T03:05:40.542Z,20.4
2018-04-26T03:06:41.217Z,20.4
2018-04-26T03:07:41.830Z,20.4
2018-04-26T03:08:42.470Z,20.4
2018-04-26T03:09:43.361Z,20.4
2018-04-26T03:10:44.007Z,20.4
2018-04-26T03:11:44.646Z,20.4
2018-04-26T03:12:45.287Z,20.4
2018-04-26T03:13:45.927Z,20.4
2018-04-26T03:14:46.660Z,20.4
2018-04-26T03:15:47.211Z,20.4
2018-04-26T03:16:47.850Z,20.4
2018-04-26T03:17:48.491Z,20.5
2018-04-26T03:18:49.132Z,20.5
2018-04-26T03:19:49.772Z,20.4
2018-04-26T03:20:50.412Z,20.3
2018-04-26T03:21:51.054Z,20.5
2018-04-26T03:22:51.694Z,20.4
2018-04-26T03:23:52.334Z,20.5
2018-04-26T03:24:53.528Z,20.5
2018-04-26T03:25:54.167Z,20.4
2018-04-26T03:26:54.813Z,20.4
2018-04-26T03:27:55.455Z,20.4
2018-04-26T03:28:56.095Z,20.4
2018-04-26T03:29:56.734Z,20.4
2018-04-26T03:30:57.435Z,20.4
2018-04-26T03:31:58.016Z,20.3
2018-04-26T03:32:58.656Z,20.4
2018-04-26T03:33:59.298Z,20.3
2018-04-26T03:34:59.939Z,20.4
2018-04-26T03:36:00.581Z,20.4
2018-04-26T03:37:01.226Z,20.4
2018-04-26T03:38:01.866Z,20.4
2018-04-26T03:39:02.507Z,20.4
2018-04-26T03:40:03.399Z,20.4
2018-04-26T03:41:04.044Z,20.4
2018-04-26T03:42:04.683Z,20.4
2018-04-26T03:43:05.323Z,20.4
2018-04-26T03:44:05.963Z,20.4
2018-04-26T03:45:06.605Z,20.4
2018-04-26T03:46:07.245Z,20.3
2018-04-26T03:47:07.889Z,20.4
2018-04-26T03:48:08.527Z,20.4
2018-04-26T03:49:09.172Z,20.4
2018-04-26T03:50:09.824Z,20.4
2018-04-26T03:51:10.456Z,20.3
2018-04-26T03:52:11.167Z,20.4
2018-04-26T03:53:11.807Z,20.3
2018-04-26T03:54:12.446Z,20.4
2018-04-26T03:55:13.185Z,20.4
2018-04-26T03:56:13.831Z,20.3
2018-04-26T03:57:14.465Z,20.4
2018-04-26T03:58:15.105Z,20.4
2018-04-26T03:59:15.748Z,20.3
2018-04-26T04:00:16.387Z,20.4
2018-04-26T04:01:17.027Z,20.4
2018-04-26T04:02:17.668Z,20.4
2018-04-26T04:03:18.308Z,20.4
2018-04-26T04:04:18.951Z,20.4
2018-04-26T04:05:19.588Z,20.3
2018-04-26T04:06:20.228Z,20.4
2018-04-26T04:07:20.869Z,20.4
2018-04-26T04:08:21.511Z,20.3
2018-04-26T04:09:22.155Z,20.4
2018-04-26T04:10:22.894Z,20.3
2018-04-26T04:11:23.535Z,20.4
2018-04-26T04:12:24.175Z,20.4
2018-04-26T04:13:24.816Z,20.4
2018-04-26T04:14:25.456Z,20.4
2018-04-26T04:15:26.096Z,20.4
2018-04-26T04:16:26.735Z,20.4
2018-04-26T04:17:27.373Z,20.4
2018-04-26T04:18:28.012Z,20.3
2018-04-26T04:19:28.650Z,20.4
2018-04-26T04:20:29.289Z,20.4
2018-04-26T04:21:29.929Z,20.3
2018-04-26T04:22:30.569Z,20.4
2018-04-26T04:23:31.210Z,20.4
2018-04-26T04:24:32.199Z,20.4
2018-04-26T04:25:32.839Z,20.4
2018-04-26T04:26:33.477Z,20.4
2018-04-26T04:27:34.117Z,20.4
2018-04-26T04:28:34.755Z,20.4
2018-04-26T04:29:35.397Z,20.3
2018-04-26T04:30:36.038Z,20.4
2018-04-26T04:31:36.679Z,20.4
2018-04-26T04:32:37.319Z,20.4
2018-04-26T04:33:37.959Z,20.4
2018-04-26T04:34:38.599Z,20.3
2018-04-26T04:35:39.240Z,20.4
2018-04-26T04:36:39.880Z,20.3
2018-04-26T04:37:40.522Z,20.2
2018-04-26T04:38:41.218Z,20.3
2018-04-26T04:39:41.902Z,20.3
2018-04-26T04:40:42.543Z,20.2
2018-04-26T04:41:43.183Z,20.4
2018-04-26T04:42:43.824Z,20.3
2018-04-26T04:43:44.464Z,20.4
2018-04-26T04:44:45.103Z,20.4
2018-04-26T04:45:45.745Z,20.3
2018-04-26T04:46:46.384Z,20.3
2018-04-26T04:47:47.023Z,20.3
2018-04-26T04:48:47.661Z,20.3
2018-04-26T04:49:48.307Z,20.4
2018-04-26T04:50:48.938Z,20.4
2018-04-26T04:51:49.579Z,20.2
2018-04-26T04:52:50.222Z,20.4
2018-04-26T04:53:50.858Z,20.4
2018-04-26T04:54:51.753Z,20.4
2018-04-26T04:55:52.397Z,20.3
2018-04-26T04:56:53.044Z,20.4
2018-04-26T04:57:53.677Z,20.4
2018-04-26T04:58:54.315Z,20.3
2018-04-26T04:59:55.207Z,20.3
2018-04-26T05:00:55.846Z,20.2
2018-04-26T05:01:56.631Z,20.3
2018-04-26T05:02:57.237Z,20.4
2018-04-26T05:03:57.878Z,20.4
2018-04-26T05:04:58.522Z,20.4
2018-04-26T05:05:59.161Z,20.4
2018-04-26T05:06:59.803Z,20.3
2018-04-26T05:08:00.442Z,20.4
2018-04-26T05:09:01.082Z,20.3
2018-04-26T05:10:01.728Z,20.4
2018-04-26T05:11:02.369Z,20.4
2018-04-26T05:12:03.009Z,20.3
2018-04-26T05:13:03.649Z,20.4
2018-04-26T05:14:04.290Z,20.3
2018-04-26T05:15:04.932Z,20.4
2018-04-26T05:16:05.571Z,20.3
2018-04-26T05:17:06.462Z,20.4
2018-04-26T05:18:07.103Z,20.2
2018-04-26T05:19:07.743Z,20.4
2018-04-26T05:20:08.384Z,20.3
2018-04-26T05:21:09.024Z,20.4
2018-04-26T05:22:09.661Z,20.3
2018-04-26T05:23:10.405Z,20.3
2018-04-26T05:24:11.244Z,20.4
2018-04-26T05:25:11.980Z,20.4
2018-04-26T05:26:12.618Z,20.3
2018-04-26T05:27:13.263Z,20.4
2018-04-26T05:28:13.909Z,20.4
2018-04-26T05:29:14.546Z,20.2
2018-04-26T05:30:15.184Z,20.3
2018-04-26T05:31:15.824Z,20.4
2018-04-26T05:32:16.496Z,20.3
2018-04-26T05:33:17.133Z,20.2
2018-04-26T05:34:17.769Z,20.3
2018-04-26T05:35:18.409Z,20.4
2018-04-26T05:36:19.052Z,20.3
2018-04-26T05:37:19.690Z,20.3
2018-04-26T05:38:20.334Z,20.4
2018-04-26T05:39:20.976Z,20.2
2018-04-26T05:40:21.717Z,20.3
2018-04-26T05:41:22.360Z,20.4
2018-04-26T05:42:23.105Z,20.3
2018-04-26T05:43:23.745Z,20.4
2018-04-26T05:44:24.386Z,20.4
2018-04-26T05:45:25.032Z,20.4
2018-04-26T05:46:25.668Z,20.2
2018-04-26T05:47:26.431Z,20.2
2018-04-26T05:48:27.049Z,20.3
2018-04-26T05:49:27.692Z,20.4
2018-04-26T05:50:28.327Z,20.4
2018-04-26T05:51:28.972Z,20.4
2018-04-26T05:52:29.606Z,20.4
2018-04-26T05:53:30.245Z,20.4
2018-04-26T05:54:30.893Z,20.3
2018-04-26T05:55:31.521Z,20.4
2018-04-26T05:56:32.164Z,20.4
2018-04-26T05:57:33.104Z,20.4
2018-04-26T05:58:33.744Z,20.4
2018-04-26T05:59:34.388Z,20.4
2018-04-26T06:00:35.029Z,20.4
2018-04-26T06:01:35.867Z,20.4
2018-04-26T06:02:36.505Z,20.2
2018-04-26T06:03:37.200Z,20.4
2018-04-26T06:04:37.783Z,20.3
2018-04-26T06:05:38.429Z,20.4
2018-04-26T06:06:39.218Z,20.4
2018-04-26T06:07:39.857Z,20.4
2018-04-26T06:08:40.498Z,20.4
2018-04-26T06:09:41.141Z,20.4
2018-04-26T06:10:41.780Z,20.4
2018-04-26T06:11:42.417Z,20.3
2018-04-26T06:12:43.058Z,20.4
2018-04-26T06:13:43.700Z,20.3
2018-04-26T06:14:44.339Z,20.4
2018-04-26T06:15:44.977Z,20.3
2018-04-26T06:16:45.769Z,20.4
2018-04-26T06:17:46.360Z,20.4
2018-04-26T06:18:47.005Z,20.4
2018-04-26T06:19:47.654Z,20.2
2018-04-26T06:20:48.283Z,20.3
2018-04-26T06:21:48.929Z,20.4
2018-04-26T06:22:49.664Z,20.2
2018-04-26T06:23:50.304Z,20.2
2018-04-26T06:24:51.151Z,20.4
2018-04-26T06:25:51.792Z,20.3
2018-04-26T06:26:52.431Z,20.4
2018-04-26T06:27:53.072Z,20.3
2018-04-26T06:28:53.711Z,20.4
2018-04-26T06:29:54.353Z,20.2
2018-04-26T06:30:54.992Z,20.3
2018-04-26T06:31:55.732Z,20.2
2018-04-26T06:32:56.372Z,20.3
2018-04-26T06:33:57.013Z,20.4
2018-04-26T06:34:57.653Z,20.4
2018-04-26T06:35:58.294Z,20.2
2018-04-26T06:36:58.933Z,20.4
2018-04-26T06:37:59.572Z,20.3
2018-04-26T06:39:00.214Z,20.2
2018-04-26T06:40:00.852Z,20.3
2018-04-26T06:41:01.490Z,20.4
2018-04-26T06:42:02.131Z,20.4
2018-04-26T06:43:02.782Z,20.3
2018-04-26T06:44:03.411Z,20.3
2018-04-26T06:45:04.053Z,20.4
2018-04-26T06:46:04.695Z,20.3
2018-04-26T06:47:05.481Z,20.3
2018-04-26T06:48:06.273Z,20.3
2018-04-26T06:49:07.110Z,20.3
2018-04-26T06:50:07.750Z,20.4
2018-04-26T06:51:08.389Z,20.3
2018-04-26T06:52:09.065Z,20.4
2018-04-26T06:53:09.710Z,20.3
2018-04-26T06:54:10.345Z,20.4
2018-04-26T06:55:10.988Z,20.2
2018-04-26T06:56:11.625Z,20.3
2018-04-26T06:57:12.272Z,20.3
2018-04-26T06:58:13.013Z,20.3
2018-04-26T06:59:13.655Z,20.2
2018-04-26T07:00:14.295Z,20.2
2018-04-26T07:01:14.935Z,20.2
2018-04-26T07:02:15.677Z,20.2
2018-04-26T07:03:16.316Z,20.3
2018-04-26T07:04:16.955Z,20.3
2018-04-26T07:05:17.597Z,20.3
2018-04-26T07:06:18.341Z,20.3
2018-04-26T07:07:18.985Z,20.3
2018-04-26T07:08:19.627Z,20.3
2018-04-26T07:09:20.264Z,20.3
2018-04-26T07:10:20.905Z,20.3
2018-04-26T07:11:21.549Z,20.3
2018-04-26T07:12:22.200Z,20.2
2018-04-26T07:13:22.840Z,20.3
2018-04-26T07:14:23.479Z,20.3
2018-04-26T07:15:24.121Z,20.2
2018-04-26T07:16:24.762Z,20.2
2018-04-26T07:17:25.407Z,20.4
2018-04-26T07:18:26.045Z,20.2
2018-04-26T07:19:26.683Z,20.3
2018-04-26T07:20:27.324Z,20.2
2018-04-26T07:21:27.970Z,20.4
2018-04-26T07:22:28.610Z,20.3
2018-04-26T07:23:29.250Z,20.4
2018-04-26T07:24:29.991Z,20.4
2018-04-26T07:25:30.633Z,20.4
2018-04-26T07:26:31.274Z,20.4
2018-04-26T07:27:31.916Z,20.3
2018-04-26T07:28:32.556Z,20.4
2018-04-26T07:29:33.202Z,20.5
2018-04-26T07:30:33.839Z,20.6
2018-04-26T07:31:34.582Z,20.5
2018-04-26T07:32:35.334Z,20.6
2018-04-26T07:33:35.973Z,20.6
2018-04-26T07:34:36.616Z,20.6
2018-04-26T07:35:37.258Z,20.5
2018-04-26T07:36:37.897Z,20.6
2018-04-26T07:37:38.540Z,20.6
2018-04-26T07:38:39.280Z,20.6
2018-04-26T07:39:39.920Z,20.6
2018-04-26T07:40:40.562Z,20.6
2018-04-26T07:41:41.204Z,20.6
2018-04-26T07:42:41.847Z,20.5
2018-04-26T07:43:42.488Z,20.6
2018-04-26T07:44:43.312Z,20.5
2018-04-26T07:45:44.075Z,20.6
2018-04-26T07:46:44.742Z,20.5
2018-04-26T07:47:45.356Z,20.6
2018-04-26T07:48:46.197Z,20.5
2018-04-26T07:49:46.837Z,20.5
2018-04-26T07:50:47.476Z,20.5
2018-04-26T07:51:48.116Z,20.5
2018-04-26T07:52:48.757Z,20.5
2018-04-26T07:53:49.400Z,20.6
2018-04-26T07:54:50.040Z,20.5
2018-04-26T07:55:50.780Z,20.6
2018-04-26T07:56:51.522Z,20.6
2018-04-26T07:57:52.165Z,20.6
2018-04-26T07:58:52.805Z,20.6
2018-04-26T07:59:53.449Z,20.5
2018-04-26T08:00:54.091Z,20.7
2018-04-26T08:01:54.733Z,20.6
2018-04-26T08:02:55.372Z,20.6
2018-04-26T08:03:56.013Z,20.7
2018-04-26T08:04:56.662Z,20.7
2018-04-26T08:05:57.309Z,20.6
2018-04-26T08:06:57.951Z,20.7
2018-04-26T08:07:58.592Z,20.6
2018-04-26T08:08:59.243Z,20.6
2018-04-26T08:09:59.879Z,20.7
2018-04-26T08:11:00.520Z,20.7
2018-04-26T08:12:01.162Z,20.6
2018-04-26T08:13:01.803Z,20.6
2018-04-26T08:14:02.456Z,20.6
2018-04-26T08:15:03.091Z,20.6
2018-04-26T08:16:03.731Z,20.6
2018-04-26T08:17:04.572Z,20.5
2018-04-26T08:18:05.513Z,20.6
2018-04-26T08:19:06.157Z,20.6
2018-04-26T08:20:06.798Z,20.6
2018-04-26T08:21:07.440Z,20.5
2018-04-26T08:22:08.180Z,20.6
2018-04-26T08:23:08.920Z,20.6
2018-04-26T08:24:09.660Z,20.6
2018-04-26T08:25:10.403Z,20.6
2018-04-26T08:26:11.045Z,20.6
2018-04-26T08:27:11.686Z,20.6
2018-04-26T08:28:12.328Z,20.6
2018-04-26T08:29:13.069Z,20.6
2018-04-26T08:30:13.860Z,20.6
2018-04-26T08:31:14.602Z,20.7
2018-04-26T08:32:15.517Z,20.6
2018-04-26T08:33:16.157Z,20.6
2018-04-26T08:34:16.798Z,20.6
2018-04-26T08:35:17.440Z,20.6
2018-04-26T08:36:18.081Z,20.7
2018-04-26T08:37:18.741Z,20.6
2018-04-26T08:38:19.365Z,20.6
2018-04-26T08:39:20.008Z,20.7
2018-04-26T08:40:20.644Z,20.6
2018-04-26T08:41:21.286Z,20.6
2018-04-26T08:42:21.925Z,20.7
2018-04-26T08:43:22.667Z,20.7
2018-04-26T08:44:23.309Z,20.7
2018-04-26T08:45:23.949Z,20.6
2018-04-26T08:46:24.592Z,20.6
2018-04-26T08:47:25.335Z,20.7
2018-04-26T08:48:25.974Z,20.8
2018-04-26T08:49:26.620Z,20.7
2018-04-26T08:50:27.261Z,20.6
2018-04-26T08:51:28.009Z,20.6
2018-04-26T08:52:28.650Z,20.6
2018-04-26T08:53:29.291Z,20.6
2018-04-26T08:54:30.037Z,20.6
2018-04-26T08:55:30.683Z,20.6
2018-04-26T08:56:31.330Z,20.6
2018-04-26T08:57:31.971Z,20.6
2018-04-26T08:58:32.611Z,20.7
2018-04-26T08:59:33.254Z,20.8
2018-04-26T09:00:33.901Z,20.7
2018-04-26T09:01:34.770Z,20.7
2018-04-26T09:02:35.386Z,20.7
2018-04-26T09:03:36.025Z,20.7
2018-04-26T09:04:36.666Z,20.7
2018-04-26T09:05:37.309Z,20.8
2018-04-26T09:06:37.985Z,20.7
2018-04-26T09:07:38.591Z,20.7
2018-04-26T09:08:39.231Z,20.7
2018-04-26T09:09:39.872Z,20.7
2018-04-26T09:10:40.511Z,20.6
2018-04-26T09:11:41.152Z,20.7
2018-04-26T09:12:41.793Z,20.7
2018-04-26T09:13:42.435Z,20.6
2018-04-26T09:14:43.176Z,20.7
2018-04-26T09:15:43.876Z,20.7
2018-04-26T09:16:44.459Z,20.7
2018-04-26T09:17:45.100Z,20.6
2018-04-26T09:18:45.742Z,20.7
2018-04-26T09:19:46.383Z,20.7
2018-04-26T09:20:47.026Z,20.6
2018-04-26T09:21:47.765Z,20.7
2018-04-26T09:22:48.505Z,20.6
2018-04-26T09:23:49.144Z,20.7
2018-04-26T09:24:49.887Z,20.7
2018-04-26T09:25:50.529Z,20.6
2018-04-26T09:26:51.271Z,20.6
2018-04-26T09:27:51.914Z,20.7
2018-04-26T09:28:52.756Z,20.7
2018-04-26T09:29:53.545Z,20.7
2018-04-26T09:30:54.186Z,20.7
2018-04-26T09:31:54.928Z,20.7
2018-04-26T09:32:55.572Z,20.7
2018-04-26T09:33:56.322Z,20.7
2018-04-26T09:34:56.955Z,20.7
2018-04-26T09:35:57.598Z,20.7
2018-04-26T09:36:58.589Z,20.7
2018-04-26T09:37:59.480Z,20.7
2018-04-26T09:39:00.125Z,20.7
2018-04-26T09:40:00.767Z,20.6
2018-04-26T09:41:01.505Z,20.7
2018-04-26T09:42:02.146Z,20.8
2018-04-26T09:43:02.790Z,20.7
2018-04-26T09:44:03.432Z,20.7
2018-04-26T09:45:04.174Z,20.7
2018-04-26T09:46:04.814Z,20.7
2018-04-26T09:47:05.459Z,20.7
2018-04-26T09:48:06.100Z,20.7
2018-04-26T09:49:06.744Z,20.7
2018-04-26T09:50:07.385Z,20.8
2018-04-26T09:51:08.026Z,20.7
2018-04-26T09:52:08.720Z,20.6
2018-04-26T09:53:09.360Z,20.8
2018-04-26T09:54:10.000Z,20.8
2018-04-26T09:55:10.641Z,20.6
2018-04-26T09:56:11.282Z,20.8
2018-04-26T09:57:11.922Z,20.8
2018-04-26T09:58:12.563Z,20.8
2018-04-26T09:59:13.356Z,20.8
2018-04-26T10:00:13.998Z,20.8
2018-04-26T10:01:14.646Z,20.8
2018-04-26T10:02:15.387Z,20.8
2018-04-26T10:03:16.028Z,20.9
2018-04-26T10:04:16.819Z,20.9
2018-04-26T10:05:17.459Z,20.8
2018-04-26T10:06:18.200Z,20.8
2018-04-26T10:07:18.842Z,20.8
2018-04-26T10:08:19.488Z,20.8
2018-04-26T10:09:20.128Z,20.8
2018-04-26T10:10:20.871Z,20.8
2018-04-26T10:11:21.514Z,20.8
2018-04-26T10:12:22.209Z,20.8
2018-04-26T10:13:22.852Z,20.9
2018-04-26T10:14:23.493Z,20.8
2018-04-26T10:15:24.135Z,20.8
2018-04-26T10:16:24.877Z,20.8
2018-04-26T10:17:25.519Z,20.9
2018-04-26T10:18:26.159Z,20.8
2018-04-26T10:19:26.800Z,20.7
2018-04-26T10:20:27.445Z,20.8
2018-04-26T10:21:28.079Z,20.8
2018-04-26T10:22:28.820Z,20.8
2018-04-26T10:23:29.463Z,20.8
2018-04-26T10:24:30.306Z,20.8
2018-04-26T10:25:30.947Z,20.8
2018-04-26T10:26:31.588Z,20.8
2018-04-26T10:27:32.227Z,20.8
2018-04-26T10:28:32.867Z,20.9
2018-04-26T10:29:33.610Z,20.8
2018-04-26T10:30:34.351Z,20.9
2018-04-26T10:31:35.096Z,20.8
2018-04-26T10:32:35.834Z,20.9
2018-04-26T10:33:36.477Z,20.9
2018-04-26T10:34:37.117Z,20.8
2018-04-26T10:35:37.761Z,20.9
2018-04-26T10:36:38.402Z,20.9
2018-04-26T10:37:39.143Z,20.8
2018-04-26T10:38:39.985Z,20.9
2018-04-26T10:39:40.627Z,20.8
2018-04-26T10:40:41.268Z,20.8
2018-04-26T10:41:41.908Z,21.0
2018-04-26T10:42:42.554Z,20.9
2018-04-26T10:43:43.390Z,20.9
2018-04-26T10:44:44.033Z,20.9
2018-04-26T10:45:44.676Z,20.9
2018-04-26T10:46:45.421Z,20.9
2018-04-26T10:47:46.059Z,20.9
2018-04-26T10:48:46.700Z,20.9
2018-04-26T10:49:47.344Z,20.9
2018-04-26T10:50:47.985Z,20.9
2018-04-26T10:51:48.629Z,20.9
2018-04-26T10:52:49.271Z,20.9
2018-04-26T10:53:49.912Z,20.9
2018-04-26T10:54:50.557Z,20.9
2018-04-26T10:55:51.198Z,20.9
2018-04-26T10:56:51.842Z,21.0
2018-04-26T10:57:52.586Z,20.8
2018-04-26T10:58:53.430Z,21.0
2018-04-26T10:59:54.070Z,21.0
2018-04-26T11:00:54.713Z,21.0
2018-04-26T11:01:55.460Z,20.9
2018-04-26T11:02:56.101Z,21.0
2018-04-26T11:03:56.744Z,20.9
2018-04-26T11:04:57.488Z,21.0
2018-04-26T11:05:58.128Z,21.0
2018-04-26T11:06:58.873Z,20.9
2018-04-26T11:07:59.517Z,21.0
2018-04-26T11:09:00.160Z,21.0
2018-04-26T11:10:00.805Z,21.0
2018-04-26T11:11:01.445Z,21.0
2018-04-26T11:12:02.088Z,21.0
2018-04-26T11:13:02.730Z,20.9
2018-04-26T11:14:03.473Z,21.0
2018-04-26T11:15:04.116Z,20.9
2018-04-26T11:16:04.757Z,20.9
2018-04-26T11:17:05.399Z,20.9
2018-04-26T11:18:06.042Z,20.9
2018-04-26T11:19:06.685Z,20.9
2018-04-26T11:20:07.325Z,20.9
2018-04-26T11:21:07.967Z,20.9
2018-04-26T11:22:08.608Z,20.9
2018-04-26T11:23:09.392Z,20.9
2018-04-26T11:24:10.194Z,20.9
2018-04-26T11:25:10.937Z,21.0
2018-04-26T11:26:11.682Z,20.9
2018-04-26T11:27:12.326Z,21.0
2018-04-26T11:28:12.965Z,21.0
2018-04-26T11:29:13.681Z,21.0
2018-04-26T11:30:14.351Z,21.0
2018-04-26T11:31:14.992Z,21.0
2018-04-26T11:32:15.785Z,21.0
2018-04-26T11:33:16.479Z,21.0
2018-04-26T11:34:17.120Z,21.0
2018-04-26T11:35:17.761Z,21.0
2018-04-26T11:36:18.403Z,21.0
2018-04-26T11:37:19.246Z,20.9
2018-04-26T11:38:19.887Z,21.0
2018-04-26T11:39:20.530Z,21.0
2018-04-26T11:40:21.172Z,21.0
2018-04-26T11:41:21.813Z,21.0
2018-04-26T11:42:22.457Z,21.0
2018-04-26T11:43:23.102Z,21.1
2018-04-26T11:44:23.843Z,21.0
2018-04-26T11:45:24.491Z,21.1
2018-04-26T11:46:25.128Z,21.1
2018-04-26T11:47:25.770Z,21.1
2018-04-26T11:48:26.412Z,21.1
2018-04-26T11:49:27.055Z,21.1
2018-04-26T11:50:27.702Z,21.1
2018-04-26T11:51:28.342Z,21.1
2018-04-26T11:52:29.071Z,21.2
2018-04-26T11:53:29.627Z,21.1
2018-04-26T11:54:30.270Z,21.1
2018-04-26T11:55:31.013Z,21.1
2018-04-26T11:56:31.655Z,21.1
2018-04-26T11:57:32.297Z,21.0
2018-04-26T11:58:33.040Z,21.0
2018-04-26T11:59:33.679Z,21.0
2018-04-26T12:00:34.320Z,21.0
2018-04-26T12:01:35.161Z,20.9
2018-04-26T12:02:35.917Z,21.0
2018-04-26T12:03:36.649Z,20.9
2018-04-26T12:04:37.290Z,20.9
2018-04-26T12:05:37.938Z,21.0
2018-04-26T12:06:38.677Z,20.9
2018-04-26T12:07:39.337Z,20.8
2018-04-26T12:08:39.969Z,20.9
2018-04-26T12:09:40.616Z,20.8
2018-04-26T12:10:41.260Z,20.9
2018-04-26T12:11:41.901Z,21.0
2018-04-26T12:12:42.547Z,20.9
2018-04-26T12:13:43.188Z,20.9
2018-04-26T12:14:43.831Z,20.9
2018-04-26T12:15:44.473Z,20.9
2018-04-26T12:16:45.114Z,21.0
2018-04-26T12:17:45.758Z,21.0
2018-04-26T12:18:46.399Z,21.0
2018-04-26T12:19:47.140Z,21.0
2018-04-26T12:20:47.783Z,21.0
2018-04-26T12:21:48.428Z,21.0
2018-04-26T12:22:49.067Z,21.0
2018-04-26T12:23:49.710Z,21.1
2018-04-26T12:24:50.551Z,21.1
2018-04-26T12:25:51.192Z,21.0
2018-04-26T12:26:51.831Z,21.0
2018-04-26T12:27:52.580Z,21.2
2018-04-26T12:28:53.319Z,21.0
2018-04-26T12:29:53.961Z,21.0
2018-04-26T12:30:54.605Z,21.2
2018-04-26T12:31:55.244Z,21.1
2018-04-26T12:32:55.889Z,21.1
2018-04-26T12:33:57.180Z,21.2
2018-04-26T12:34:57.821Z,21.2
2018-04-26T12:35:58.562Z,21.2
2018-04-26T12:36:59.456Z,21.2
2018-04-26T12:38:00.098Z,21.2
2018-04-26T12:39:00.738Z,21.2
2018-04-26T12:40:01.383Z,21.2
2018-04-26T12:41:02.023Z,21.2
2018-04-26T12:42:02.691Z,21.2
2018-04-26T12:43:03.308Z,21.2
2018-04-26T12:44:04.051Z,21.1
2018-04-26T12:45:04.695Z,21.1
2018-04-26T12:46:05.437Z,21.2
2018-04-26T12:47:06.078Z,21.1
2018-04-26T12:48:06.721Z,21.2
2018-04-26T12:49:07.362Z,21.1
2018-04-26T12:50:08.012Z,21.2
2018-04-26T12:51:08.754Z,21.1
2018-04-26T12:52:09.477Z,21.2
2018-04-26T12:53:10.119Z,21.2
2018-04-26T12:54:11.011Z,21.2
2018-04-26T12:55:11.651Z,21.2
2018-04-26T12:56:12.301Z,21.2
2018-04-26T12:57:12.957Z,21.2
2018-04-26T12:58:13.754Z,21.3
2018-04-26T12:59:14.520Z,21.3
2018-04-26T13:00:15.160Z,21.2
2018-04-26T13:01:15.802Z,21.3
2018-04-26T13:02:16.644Z,21.2
2018-04-26T13:03:17.286Z,21.3
2018-04-26T13:04:17.929Z,21.3
2018-04-26T13:05:18.571Z,21.2
2018-04-26T13:06:19.214Z,21.3
2018-04-26T13:07:19.856Z,21.3
2018-04-26T13:08:20.499Z,21.2
2018-04-26T13:09:21.141Z,21.3
2018-04-26T13:10:21.788Z,21.3
2018-04-26T13:11:22.424Z,21.3
2018-04-26T13:12:23.065Z,21.4
2018-04-26T13:13:23.707Z,21.3
2018-04-26T13:14:24.350Z,21.3
2018-04-26T13:15:24.992Z,21.2
2018-04-26T13:16:25.634Z,21.2
2018-04-26T13:17:26.540Z,21.3
2018-04-26T13:18:27.019Z,21.3
2018-04-26T13:19:27.662Z,21.3
2018-04-26T13:20:28.303Z,21.3
2018-04-26T13:21:28.960Z,21.2
2018-04-26T13:22:29.587Z,21.3
2018-04-26T13:23:30.330Z,21.2
2018-04-26T13:24:31.072Z,21.3
2018-04-26T13:25:31.714Z,21.3
2018-04-26T13:26:32.357Z,21.3
2018-04-26T13:27:33.002Z,21.3